Time;durP1;ratioP1;P1;durP2;ratioP2;P2;SDS_P1;SDS_P2;PMS_P1;PMS_P2;Temp;Humidity;BMP_temperature;BMP_pressure;BME280_temperature;BME280_humidity;BME280_pressure;Samples;Min_cycle;Max_cycle;Signal;HPM_P1;HPM_P2
2024/04/02 00:01:08;;;;;;;63.30;12.15;;;;;;;16.00;56.54;98271.86;1787366;80;27445;-59
2024/04/02 00:03:37;;;;;;;64.03;12.58;;;;;;;15.94;56.74;98263.14;1787292;80;25702;-61
2024/04/02 00:06:05;;;;;;;59.50;10.78;;;;;;;15.88;57.00;98254.58;1787385;80;25433;-62
2024/04/02 00:08:31;;;;;;;71.00;12.13;;;;;;;15.82;57.29;98256.94;1787287;80;25410;-60
2024/04/02 00:11:02;;;;;;;64.85;11.20;;;;;;;15.75;57.42;98256.13;1787367;80;25389;-61
2024/04/02 00:13:29;;;;;;;68.60;20.82;;;;;;;15.71;57.37;98264.32;1773114;80;27473;-62
2024/04/02 00:15:57;;;;;;;60.00;10.93;;;;;;;15.68;57.51;98268.63;1777578;80;25719;-61
2024/04/02 00:18:24;;;;;;;68.42;11.20;;;;;;;15.64;57.41;98266.47;1777685;80;25586;-61
2024/04/02 00:21:00;;;;;;;63.60;11.45;;;;;;;15.61;58.06;98267.84;1777568;80;25529;-61
2024/04/02 00:23:27;;;;;;;60.63;11.08;;;;;;;15.57;58.62;98274.66;1777692;80;25586;-61
2024/04/02 00:26:02;;;;;;;62.58;10.98;;;;;;;15.54;58.72;98273.31;1777524;80;28230;-61
2024/04/02 00:28:29;;;;;;;55.30;9.63;;;;;;;15.52;58.78;98274.29;1776787;80;25391;-61
2024/04/02 00:31:02;;;;;;;57.30;11.00;;;;;;;15.47;59.09;98272.14;1777373;80;25536;-61
2024/04/02 00:33:30;;;;;;;74.72;11.22;;;;;;;15.44;59.41;98270.22;1777594;80;26171;-60
2024/04/02 00:36:03;;;;;;;62.45;11.38;;;;;;;15.42;59.52;98274.48;1777627;80;25448;-60
2024/04/02 00:38:30;;;;;;;54.40;9.25;;;;;;;15.38;60.09;98271.77;1777471;80;27450;-61
2024/04/02 00:40:57;;;;;;;51.63;9.15;;;;;;;15.36;60.23;98272.75;1777561;80;25433;-61
2024/04/02 00:43:25;;;;;;;60.83;9.93;;;;;;;15.32;60.70;98267.87;1777654;80;25438;-61
2024/04/02 00:45:53;;;;;;;54.15;9.35;;;;;;;15.31;60.95;98264.97;1777624;80;25566;-61
2024/04/02 00:48:21;;;;;;;62.23;9.43;;;;;;;15.31;60.92;98278.00;1777689;80;25413;-61
2024/04/02 00:50:49;;;;;;;58.95;9.95;;;;;;;15.29;61.64;98287.14;1777626;80;28038;-61
2024/04/02 00:53:16;;;;;;;62.55;10.75;;;;;;;15.26;61.20;98290.64;1777529;80;25413;-61
2024/04/02 00:55:45;;;;;;;68.30;10.68;;;;;;;15.23;61.75;98294.73;1777642;80;25410;-61
2024/04/02 00:58:11;;;;;;;66.77;11.48;;;;;;;15.21;61.83;98293.75;1777720;80;25515;-61
2024/04/02 01:00:37;;;;;;;64.82;10.75;;;;;;;15.19;62.35;98292.57;1777832;80;25559;-61
2024/04/02 01:03:06;;;;;;;50.23;8.65;;;;;;;15.17;63.20;98292.19;1751470;80;27380;-61
2024/04/02 01:05:36;;;;;;;50.80;10.50;;;;;;;15.15;65.66;98294.52;1777734;80;25769;-61
2024/04/02 01:08:05;;;;;;;28.40;6.28;;;;;;;15.13;65.54;98298.40;1777804;80;25643;-62
2024/04/02 01:10:32;;;;;;;28.20;5.00;;;;;;;15.13;68.41;98284.02;1777874;80;26006;-61
2024/04/02 01:13:00;;;;;;;17.23;4.37;;;;;;;15.13;68.08;98292.95;1778021;80;25410;-61
2024/04/02 01:15:28;;;;;;;18.25;3.22;;;;;;;15.13;71.04;98292.19;1819788;78;27037;-60
2024/04/02 01:17:54;;;;;;;21.45;4.08;;;;;;;15.12;73.14;98282.48;1787390;80;25553;-60
2024/04/02 01:20:22;;;;;;;14.28;3.50;;;;;;;15.10;70.43;98288.31;1819763;78;25584;-59
2024/04/02 01:22:50;;;;;;;22.50;3.60;;;;;;;15.09;70.57;98277.80;1787403;80;25421;-60
2024/04/02 01:25:24;;;;;;;18.57;3.80;;;;;;;15.06;71.24;98268.45;1787917;78;25413;-61
2024/04/02 01:27:50;;;;;;;14.43;3.65;;;;;;;15.07;70.84;98269.25;1787508;80;28202;-60
2024/04/02 01:30:21;;;;;;;15.03;3.27;;;;;;;15.06;71.30;98263.59;1819707;78;25579;-63
2024/04/02 01:32:51;;;;;;;17.77;3.15;;;;;;;15.05;70.95;98252.50;1787516;80;25547;-61
2024/04/02 01:35:18;;;;;;;16.25;3.00;;;;;;;15.03;71.47;98241.23;1819803;78;26120;-61
2024/04/02 01:37:45;;;;;;;18.50;3.30;;;;;;;15.03;71.49;98235.78;1787454;80;25590;-60
2024/04/02 01:40:12;;;;;;;17.52;3.62;;;;;;;15.00;71.86;98216.94;1819688;78;27456;-60
2024/04/02 01:42:39;;;;;;;11.33;3.40;;;;;;;15.00;72.09;98212.85;1787319;80;25838;-60
2024/04/02 01:45:08;;;;;;;16.82;3.60;;;;;;;15.02;71.99;98207.02;1819719;78;25400;-60
2024/04/02 01:47:34;;;;;;;16.57;3.20;;;;;;;15.03;72.67;98211.28;1787664;80;25546;-61
2024/04/02 01:50:01;;;;;;;17.67;3.80;;;;;;;15.03;72.37;98214.77;1819774;78;25568;-61
2024/04/02 01:52:28;;;;;;;15.63;3.12;;;;;;;15.03;72.33;98219.45;1787381;80;27821;-61
2024/04/02 01:54:54;;;;;;;20.27;3.40;;;;;;;15.03;72.62;98222.17;1819608;78;25407;-62
2024/04/02 01:57:20;;;;;;;16.35;4.08;;;;;;;15.02;72.62;98220.63;1787402;80;25591;-61
2024/04/02 01:59:46;;;;;;;13.60;3.27;;;;;;;15.00;73.11;98225.10;1819607;78;25567;-61
2024/04/02 02:02:12;;;;;;;16.02;3.05;;;;;;;14.99;72.92;98235.02;1787481;80;25384;-61
2024/04/02 02:04:39;;;;;;;16.67;4.08;;;;;;;14.97;73.47;98227.83;1819712;78;27481;-61
2024/04/02 02:07:06;;;;;;;13.28;3.20;;;;;;;14.94;73.67;98232.86;1787382;80;25549;-61
2024/04/02 02:09:32;;;;;;;9.25;3.37;;;;;;;14.94;74.37;98243.75;1819664;78;25420;-62
2024/04/02 02:11:58;;;;;;;12.13;3.87;;;;;;;14.91;74.08;98244.55;1787337;80;25543;-61
2024/04/02 02:14:24;;;;;;;10.53;3.02;;;;;;;14.91;74.28;98245.11;1790199;80;25439;-61
2024/04/02 02:16:50;;;;;;;11.73;3.62;;;;;;;14.89;74.49;98243.36;1793248;80;27476;-63
2024/04/02 02:19:16;;;;;;;11.70;3.27;;;;;;;14.87;74.51;98248.42;1825655;78;25597;-62
2024/04/02 02:21:48;;;;;;;7.92;3.72;;;;;;;14.85;74.49;98248.03;1793309;80;25541;-61
2024/04/02 02:24:14;;;;;;;29.12;26.52;;;;;;;14.82;74.84;98246.08;1825740;78;26175;-62
2024/04/02 02:26:40;;;;;;;9.00;3.60;;;;;;;14.77;74.33;98255.40;1825797;78;25368;-61
2024/04/02 02:29:06;;;;;;;8.30;3.67;;;;;;;14.74;74.33;98255.60;1793295;80;27444;-62
2024/04/02 02:31:35;;;;;;;12.68;3.98;;;;;;;14.72;74.31;98257.14;1793164;80;27293;-62
2024/04/02 02:34:04;;;;;;;11.53;3.70;;;;;;;14.69;74.45;98258.70;1793242;80;25439;-61
2024/04/02 02:36:31;;;;;;;11.35;2.70;;;;;;;14.64;74.29;98267.80;1793392;80;25609;-61
2024/04/02 02:38:57;;;;;;;10.43;3.33;;;;;;;14.62;74.38;98271.50;1793255;80;25653;-61
2024/04/02 02:41:23;;;;;;;8.53;2.95;;;;;;;14.58;74.23;98270.11;1793281;80;27505;-61
2024/04/02 02:43:50;;;;;;;7.17;2.92;;;;;;;14.54;74.13;98268.73;1793169;80;25633;-61
2024/04/02 02:46:16;;;;;;;10.53;2.92;;;;;;;14.53;73.92;98269.13;1793277;80;25609;-60
2024/04/02 02:48:43;;;;;;;6.78;2.70;;;;;;;14.54;73.79;98274.74;1793230;80;25627;-60
2024/04/02 02:51:09;;;;;;;9.63;3.42;;;;;;;14.51;74.67;98267.38;1793296;80;25415;-60
2024/04/02 02:53:36;;;;;;;7.60;2.72;;;;;;;14.45;73.87;98271.03;1793208;80;29784;-60
2024/04/02 02:56:03;;;;;;;11.95;2.87;;;;;;;14.41;73.85;98261.32;1793232;80;25640;-60
2024/04/02 02:58:29;;;;;;;9.40;2.80;;;;;;;14.35;73.74;98269.05;1793352;80;25475;-61
2024/04/02 03:00:56;;;;;;;9.65;3.58;;;;;;;14.32;73.87;98276.61;1793295;80;25560;-61
2024/04/02 03:03:22;;;;;;;7.75;3.22;;;;;;;14.28;74.14;98276.59;1793287;80;25469;-60
2024/04/02 03:05:56;;;;;;;8.25;3.40;;;;;;;14.27;74.22;98276.98;1793254;80;28219;-61
2024/04/02 03:08:24;;;;;;;6.03;3.08;;;;;;;14.23;74.23;98266.09;1793155;80;25716;-62
2024/04/02 03:11:03;;;;;;;13.93;3.33;;;;;;;14.18;74.03;98264.54;1793229;80;25452;-62
2024/04/02 03:13:33;;;;;;;6.03;3.50;;;;;;;14.17;74.44;98267.05;1792585;80;25566;-61
2024/04/02 03:16:03;;;;;;;9.60;3.40;;;;;;;14.14;74.26;98271.89;1793106;80;25164;-61
2024/04/02 03:18:34;;;;;;;7.33;3.17;;;;;;;14.13;74.37;98274.98;1792383;80;27460;-63
2024/04/02 03:21:01;;;;;;;10.45;2.87;;;;;;;14.08;74.24;98269.91;1793104;80;25458;-60
2024/04/02 03:23:29;;;;;;;8.70;3.67;;;;;;;14.07;74.68;98270.50;1793209;80;25553;-61
2024/04/02 03:26:02;;;;;;;7.53;2.72;;;;;;;14.05;74.33;98267.98;1793132;80;25596;-61
2024/04/02 03:28:30;;;;;;;7.28;3.00;;;;;;;14.02;74.44;98280.38;1793281;80;25430;-60
2024/04/02 03:31:01;;;;;;;9.10;3.00;;;;;;;13.99;74.23;98287.93;1793236;80;28355;-61
2024/04/02 03:33:29;;;;;;;8.55;3.08;;;;;;;13.99;74.11;98298.21;1793099;80;25572;-62
2024/04/02 03:36:06;;;;;;;5.87;3.15;;;;;;;13.98;74.06;98292.59;1793258;80;25557;-61
2024/04/02 03:38:35;;;;;;;9.83;3.12;;;;;;;13.98;74.43;98304.83;1793192;80;25482;-62
2024/04/02 03:41:13;;;;;;;7.78;3.15;;;;;;;13.98;74.14;98297.26;1793250;80;25423;-62
2024/04/02 03:43:43;;;;;;;11.50;4.00;;;;;;;13.98;74.36;98296.67;1793234;80;27464;-61
2024/04/02 03:46:12;;;;;;;7.40;3.75;;;;;;;13.99;74.23;98296.08;1793109;80;25537;-61
2024/04/02 03:48:38;;;;;;;11.78;3.50;;;;;;;13.98;73.96;98295.90;1793330;80;25569;-61
2024/04/02 03:51:05;;;;;;;6.20;3.30;;;;;;;13.98;74.23;98293.18;1793157;80;26070;-59
2024/04/02 03:53:33;;;;;;;9.78;3.77;;;;;;;13.98;74.26;98288.52;1793179;80;25537;-61
2024/04/02 03:56:03;;;;;;;8.78;4.50;;;;;;;13.96;74.40;98281.33;1793177;80;28229;-61
2024/04/02 03:58:31;;;;;;;11.75;4.55;;;;;;;13.91;74.15;98278.97;1793108;80;25580;-60
2024/04/02 04:00:59;;;;;;;12.15;3.98;;;;;;;13.87;74.33;98284.95;1793157;80;25561;-61
2024/04/02 04:03:30;;;;;;;9.63;3.70;;;;;;;13.87;74.41;98286.89;1793133;80;25593;-60
2024/04/02 04:06:07;;;;;;;10.50;3.87;;;;;;;13.86;74.16;98290.20;1793285;80;25544;-60
2024/04/02 04:08:37;;;;;;;8.35;3.90;;;;;;;13.87;74.17;98288.25;1793201;80;27408;-61
2024/04/02 04:11:04;;;;;;;8.80;4.08;;;;;;;13.86;74.25;98295.64;1793046;80;25546;-60
2024/04/02 04:13:30;;;;;;;11.43;4.97;;;;;;;13.82;73.95;98301.05;1793164;80;25556;-61
2024/04/02 04:16:02;;;;;;;8.68;4.33;;;;;;;13.80;73.89;98315.58;1793036;80;25462;-62
2024/04/02 04:18:28;;;;;;;7.58;3.87;;;;;;;13.77;73.80;98315.00;1793203;80;25491;-61
2024/04/02 04:20:58;;;;;;;7.92;4.03;;;;;;;13.74;73.66;98313.59;1793197;80;27864;-61
2024/04/02 04:23:26;;;;;;;5.60;3.55;;;;;;;13.72;73.70;98311.25;1793095;80;25367;-61
2024/04/02 04:25:59;;;;;;;9.68;3.65;;;;;;;13.69;73.74;98313.38;1793138;80;25557;-61
2024/04/02 04:28:28;;;;;;;12.05;4.22;;;;;;;13.68;73.72;98323.27;1793187;80;25605;-62
2024/04/02 04:31:01;;;;;;;7.13;3.17;;;;;;;13.62;73.82;98311.39;1793456;80;25619;-62
2024/04/02 04:33:30;;;;;;;5.20;4.25;;;;;;;13.60;73.88;98302.05;1793236;80;28058;-60
2024/04/02 04:35:58;;;;;;;8.85;3.37;;;;;;;13.57;73.89;98294.65;1793437;80;25614;-59
2024/04/02 04:38:29;;;;;;;6.40;3.25;;;;;;;13.55;73.94;98291.53;1793355;80;25529;-61
2024/04/02 04:40:57;;;;;;;6.47;3.67;;;;;;;13.53;73.65;98297.93;1793362;80;25541;-60
2024/04/02 04:43:24;;;;;;;6.17;3.27;;;;;;;13.51;73.73;98306.45;1793343;80;25620;-60
2024/04/02 04:45:58;;;;;;;6.90;3.52;;;;;;;13.52;74.17;98301.23;1793345;80;27611;-60
2024/04/02 04:48:25;;;;;;;7.22;3.33;;;;;;;13.46;73.87;98289.15;1792974;80;25556;-60
2024/04/02 04:51:01;;;;;;;5.25;3.17;;;;;;;13.41;73.84;98306.56;1793351;80;25387;-60
2024/04/02 04:53:30;;;;;;;8.60;2.83;;;;;;;13.37;73.95;98317.22;1793318;80;25645;-60
2024/04/02 04:56:03;;;;;;;6.47;3.62;;;;;;;13.34;73.70;98328.23;1793505;80;25390;-60
2024/04/02 04:58:32;;;;;;;8.50;3.17;;;;;;;13.26;73.63;98332.81;1793372;80;27557;-59
2024/04/02 05:01:00;;;;;;;5.65;2.62;;;;;;;13.22;73.94;98316.28;1793387;80;25680;-64
2024/04/02 05:03:27;;;;;;;6.97;2.98;;;;;;;13.16;73.82;98289.27;1793313;80;25613;-61
2024/04/02 05:06:07;;;;;;;5.55;2.95;;;;;;;13.12;73.90;98284.39;1793278;80;26500;-60
2024/04/02 05:08:38;;;;;;;5.83;2.85;;;;;;;13.11;73.96;98290.41;1793420;80;25594;-61
2024/04/02 05:11:06;;;;;;;5.17;2.80;;;;;;;13.06;73.69;98293.47;1793383;80;27503;-61
2024/04/02 05:13:35;;;;;;;4.22;2.90;;;;;;;13.01;74.24;98295.94;1793430;80;25421;-61
2024/04/02 05:16:04;;;;;;;5.73;3.40;;;;;;;12.97;74.31;98297.81;1789236;80;25423;-60
2024/04/02 05:18:30;;;;;;;4.72;3.02;;;;;;;12.90;74.40;98297.75;1787413;80;25501;-59
2024/04/02 05:20:58;;;;;;;4.47;2.75;;;;;;;12.87;74.82;98307.44;1787466;80;25568;-60
2024/04/02 05:23:26;;;;;;;12.40;3.35;;;;;;;12.85;75.06;98319.80;1787421;80;27535;-61
2024/04/02 05:26:01;;;;;;;5.62;2.98;;;;;;;12.83;74.98;98335.09;1787428;80;25455;-61
2024/04/02 05:28:29;;;;;;;6.72;3.80;;;;;;;12.82;75.25;98348.47;1787493;80;25527;-61
2024/04/02 05:30:55;;;;;;;4.60;3.50;;;;;;;12.82;75.45;98376.15;1787413;80;25630;-60
2024/04/02 05:33:23;;;;;;;5.80;3.50;;;;;;;12.79;75.49;98376.33;1787448;80;25573;-60
2024/04/02 05:35:49;;;;;;;6.50;3.50;;;;;;;12.77;75.44;98383.27;1787452;80;27564;-60
2024/04/02 05:38:16;;;;;;;9.10;3.85;;;;;;;12.75;75.56;98359.22;1787330;80;25684;-60
2024/04/02 05:40:42;;;;;;;8.95;3.72;;;;;;;12.75;75.98;98313.69;1787432;80;25474;-62
2024/04/02 05:43:08;;;;;;;4.58;3.42;;;;;;;12.74;75.81;98275.52;1787354;80;27788;-62
2024/04/02 05:45:34;;;;;;;8.28;4.17;;;;;;;12.73;75.93;98267.94;1787435;80;25460;-61
2024/04/02 05:48:01;;;;;;;5.95;4.45;;;;;;;12.68;76.63;98273.14;1787404;80;28403;-61
2024/04/02 05:50:28;;;;;;;5.62;4.42;;;;;;;12.63;76.93;98314.16;1787322;80;25377;-62
2024/04/02 05:52:55;;;;;;;9.78;4.87;;;;;;;12.58;77.28;98339.45;1787357;80;25655;-61
2024/04/02 05:55:22;;;;;;;8.55;4.25;;;;;;;12.54;77.17;98344.06;1787304;80;27689;-61
2024/04/02 05:57:50;;;;;;;4.87;4.37;;;;;;;12.49;77.13;98350.59;1787454;80;25608;-61
2024/04/02 06:00:18;;;;;;;6.80;4.45;;;;;;;12.47;77.79;98337.98;1787471;80;27529;-61
2024/04/02 06:02:44;;;;;;;5.05;4.55;;;;;;;12.41;77.75;98336.73;1787283;80;27355;-61
2024/04/02 06:05:10;;;;;;;4.65;4.25;;;;;;;12.35;77.81;98340.35;1787399;80;25558;-62
2024/04/02 06:07:38;;;;;;;5.12;4.62;;;;;;;12.29;77.71;98337.19;1787390;80;25455;-62
2024/04/02 06:10:07;;;;;;;5.00;4.30;;;;;;;12.23;77.85;98344.66;1787376;80;25529;-62
2024/04/02 06:12:33;;;;;;;5.33;3.75;;;;;;;12.18;78.07;98344.39;1787404;80;27406;-61
2024/04/02 06:14:59;;;;;;;5.40;4.08;;;;;;;12.12;78.17;98343.13;1787141;80;25384;-62
2024/04/02 06:17:25;;;;;;;7.30;4.28;;;;;;;12.08;78.50;98340.96;1787443;80;25525;-61
2024/04/02 06:19:51;;;;;;;7.87;4.17;;;;;;;12.02;78.59;98348.64;1787382;80;25613;-61
2024/04/02 06:22:18;;;;;;;5.87;3.75;;;;;;;12.00;79.86;98356.33;1787406;80;25369;-60
2024/04/02 06:24:46;;;;;;;5.35;4.35;;;;;;;11.95;79.37;98367.48;1787317;80;27537;-60
2024/04/02 06:27:13;;;;;;;5.30;4.80;;;;;;;11.91;79.24;98371.49;1787268;80;25442;-60
2024/04/02 06:29:39;;;;;;;4.75;3.92;;;;;;;11.86;79.87;98353.39;1787368;80;25610;-61
2024/04/02 06:32:09;;;;;;;3.85;3.55;;;;;;;11.83;79.85;98334.57;1787340;80;25544;-59
2024/04/02 06:34:36;;;;;;;4.55;4.05;;;;;;;11.82;80.26;98326.84;1787392;80;25509;-60
2024/04/02 06:37:04;;;;;;;6.33;4.10;;;;;;;11.80;80.39;98327.20;1787357;80;29749;-60
2024/04/02 06:39:30;;;;;;;7.60;4.70;;;;;;;11.80;81.03;98327.75;1787256;80;25597;-60
2024/04/02 06:41:56;;;;;;;7.12;4.65;;;;;;;11.78;81.19;98326.20;1787425;80;25574;-60
2024/04/02 06:44:26;;;;;;;5.67;4.33;;;;;;;11.75;81.71;98323.45;1787264;80;25557;-61
2024/04/02 06:46:52;;;;;;;4.97;4.47;;;;;;;11.70;82.15;98337.30;1786823;80;25451;-61
2024/04/02 06:49:19;;;;;;;5.40;4.90;;;;;;;11.68;82.38;98351.75;1787367;80;28192;-61
2024/04/02 06:51:45;;;;;;;4.62;4.12;;;;;;;11.65;83.05;98360.63;1787328;80;25624;-61
2024/04/02 06:54:11;;;;;;;5.80;4.83;;;;;;;11.61;83.38;98371.95;1787389;80;25541;-60
2024/04/02 06:56:37;;;;;;;4.83;4.33;;;;;;;11.56;82.76;98375.74;1787415;80;25608;-61
2024/04/02 06:59:04;;;;;;;7.97;7.17;;;;;;;11.53;83.17;98372.42;1787418;80;25442;-60
2024/04/02 07:01:30;;;;;;;10.00;4.92;;;;;;;11.55;83.70;98374.20;1787400;80;27600;-58
2024/04/02 07:03:57;;;;;;;7.22;4.62;;;;;;;11.55;83.87;98366.84;1787332;80;25513;-62
2024/04/02 07:06:23;;;;;;;7.17;4.87;;;;;;;11.53;84.45;98352.89;1787419;80;25558;-62
2024/04/02 07:08:49;;;;;;;5.60;5.05;;;;;;;11.52;85.33;98345.13;1787352;80;25577;-63
2024/04/02 07:11:15;;;;;;;4.45;4.05;;;;;;;11.48;85.39;98332.90;1787396;80;25648;-62
2024/04/02 07:13:42;;;;;;;5.00;4.22;;;;;;;11.44;85.58;98336.68;1787311;80;27464;-64
2024/04/02 07:16:08;;;;;;;5.78;4.58;;;;;;;11.39;85.50;98345.33;1786342;80;25987;-63
2024/04/02 07:18:36;;;;;;;4.97;4.25;;;;;;;11.35;85.76;98350.46;1785974;80;25669;-63
2024/04/02 07:21:06;;;;;;;5.35;4.83;;;;;;;11.34;86.13;98347.53;1786671;80;25696;-63
2024/04/02 07:23:35;;;;;;;5.28;4.25;;;;;;;11.35;86.29;98347.75;1786791;80;25633;-63
2024/04/02 07:26:03;;;;;;;5.35;4.47;;;;;;;11.34;86.39;98338.06;1787490;80;27509;-65
2024/04/02 07:28:30;;;;;;;4.67;4.28;;;;;;;11.34;86.91;98342.92;1787289;80;25617;-64
2024/04/02 07:30:56;;;;;;;5.12;4.72;;;;;;;11.35;87.18;98351.81;1787362;80;25592;-63
2024/04/02 07:33:22;;;;;;;4.45;4.08;;;;;;;11.31;87.06;98345.57;1787433;80;26283;-63
2024/04/02 07:35:57;;;;;;;6.37;4.72;;;;;;;11.24;86.92;98343.52;1787342;80;25385;-63
2024/04/02 07:38:24;;;;;;;5.72;4.97;;;;;;;11.19;86.94;98350.59;1787377;80;27917;-63
2024/04/02 07:40:50;;;;;;;6.40;5.65;;;;;;;11.18;87.20;98357.91;1787233;80;25433;-64
2024/04/02 07:43:17;;;;;;;6.20;4.75;;;;;;;11.17;87.61;98360.42;1787403;80;25586;-63
2024/04/02 07:45:52;;;;;;;6.15;5.53;;;;;;;11.17;88.33;98346.11;1787425;80;25533;-65
2024/04/02 07:48:20;;;;;;;11.75;5.17;;;;;;;11.16;88.08;98355.36;1787384;80;25435;-64
2024/04/02 07:50:47;;;;;;;7.12;5.42;;;;;;;11.15;88.10;98357.84;1787476;80;27508;-64
2024/04/02 07:53:14;;;;;;;6.22;5.45;;;;;;;11.14;88.48;98360.36;1787304;80;25597;-64
2024/04/02 07:55:40;;;;;;;6.10;5.60;;;;;;;11.14;88.37;98359.77;1786764;80;25850;-65
2024/04/02 07:58:07;;;;;;;6.50;5.80;;;;;;;11.16;88.38;98368.31;1786970;80;25513;-65
2024/04/02 08:00:33;;;;;;;7.22;6.53;;;;;;;11.19;88.66;98362.19;1787406;80;25599;-65
2024/04/02 08:02:59;;;;;;;8.00;5.92;;;;;;;11.21;88.76;98368.59;1787392;80;28345;-66
2024/04/02 08:05:25;;;;;;;7.33;5.62;;;;;;;11.20;88.75;98380.00;1787229;80;25619;-65
2024/04/02 08:07:52;;;;;;;6.53;5.90;;;;;;;11.15;88.40;98380.84;1787251;80;25612;-65
2024/04/02 08:10:19;;;;;;;6.42;5.80;;;;;;;11.12;88.89;98389.12;1787230;80;25507;-66
2024/04/02 08:12:45;;;;;;;6.90;6.30;;;;;;;11.12;88.59;98406.71;1787491;80;25665;-66
2024/04/02 08:15:12;;;;;;;8.53;6.42;;;;;;;11.12;89.01;98409.42;1787521;80;28078;-66
2024/04/02 08:17:39;;;;;;;5.75;5.15;;;;;;;11.13;89.38;98410.97;1787377;80;25333;-66
2024/04/02 08:22:59;;;;;;;5.92;5.42;;;;;;;11.05;89.19;98406.58;1670871;85;32795;-67
2024/04/02 08:25:27;;;;;;;5.95;5.35;;;;;;;11.03;89.49;98398.02;1731859;82;25660;-68
2024/04/02 08:27:54;;;;;;;5.00;4.50;;;;;;;11.02;89.68;98396.47;1732083;82;28577;-69
2024/04/02 08:30:21;;;;;;;4.78;4.25;;;;;;;11.00;89.70;98410.35;1731703;82;25643;-69
2024/04/02 08:32:47;;;;;;;4.92;4.42;;;;;;;11.00;89.73;98409.58;1731878;82;25651;-70
2024/04/02 08:35:14;;;;;;;5.72;3.90;;;;;;;11.00;89.88;98413.06;1731770;82;25563;-69
2024/04/02 08:37:40;;;;;;;4.05;3.65;;;;;;;11.00;90.00;98414.41;1731894;82;25513;-73
2024/04/02 08:40:10;;;;;;;7.37;3.90;;;;;;;10.97;89.76;98411.06;1731431;82;27784;-69
2024/04/02 08:42:37;;;;;;;5.28;3.52;;;;;;;10.98;90.41;98402.37;1730816;82;25533;-68
2024/04/02 08:45:09;;;;;;;2.95;2.75;;;;;;;10.94;89.75;98405.59;1731076;82;25605;-67
2024/04/02 08:47:39;;;;;;;6.05;3.58;;;;;;;10.88;89.41;98411.06;1731673;82;25559;-67
2024/04/02 08:50:09;;;;;;;3.65;3.35;;;;;;;10.88;89.89;98408.35;1731759;82;25415;-68
2024/04/02 08:52:36;;;;;;;3.87;2.95;;;;;;;10.82;89.67;98410.57;1731663;82;27452;-70
2024/04/02 08:55:05;;;;;;;4.47;2.87;;;;;;;10.77;90.19;98410.28;1731486;82;25434;-69
2024/04/02 08:57:35;;;;;;;3.22;2.85;;;;;;;10.72;90.05;98409.21;1731816;82;25441;-62
2024/04/02 09:00:06;;;;;;;;;;;;;;;10.70;90.27;98409.36;1776298;78;26381;-66
2024/04/02 09:02:34;;;;;;;13.20;10.82;;;;;;;10.72;91.02;98410.56;1819017;78;25630;-67
2024/04/02 09:05:01;;;;;;;4.92;4.22;;;;;;;10.74;91.62;98417.74;1818177;78;28472;-67
2024/04/02 09:07:27;;;;;;;3.55;3.25;;;;;;;10.76;91.37;98421.45;1818036;78;25641;-72
2024/04/02 09:09:53;;;;;;;3.92;2.95;;;;;;;10.79;91.75;98426.16;1818542;78;25393;-71
2024/04/02 09:12:21;;;;;;;3.65;3.17;;;;;;;10.78;91.26;98434.84;1818545;78;25982;-71
2024/04/02 09:14:47;;;;;;;2.85;2.62;;;;;;;10.80;91.73;98441.25;1818656;78;25932;-73
2024/04/02 09:17:14;;;;;;;3.37;3.05;;;;;;;10.79;91.14;98447.78;1818714;78;27426;-73
2024/04/02 09:19:44;;;;;;;4.05;3.02;;;;;;;10.81;91.67;98445.50;1818726;78;25611;-72
2024/04/02 09:22:12;;;;;;;3.42;3.10;;;;;;;10.84;91.79;98456.97;1819510;78;26035;-73
2024/04/02 09:24:38;;;;;;;3.58;3.15;;;;;;;10.86;91.77;98459.32;1820167;78;25575;-73
2024/04/02 09:27:06;;;;;;;4.33;2.95;;;;;;;10.89;91.79;98465.38;1820367;78;25538;-76
2024/04/02 09:29:33;;;;;;;4.37;2.75;;;;;;;10.90;91.81;98466.95;1820406;78;27492;-77
2024/04/02 09:32:01;;;;;;;3.80;3.10;;;;;;;10.92;91.70;98471.44;1820148;78;25435;-73
2024/04/02 09:34:31;;;;;;;4.08;3.67;;;;;;;10.95;92.08;98474.21;1820426;78;25507;-74
2024/04/02 09:37:35;;;;;;;3.52;2.90;;;;;;;10.96;91.69;98479.05;1820421;78;25514;-79
2024/04/02 09:40:05;;;;;;;3.70;2.95;;;;;;;10.93;91.47;98478.39;1820789;78;25500;-79
2024/04/02 09:42:33;;;;;;;4.45;2.98;;;;;;;10.90;91.43;98491.30;1820474;78;28154;-66
2024/04/02 09:45:03;;;;;;;25.15;20.08;;;;;;;10.88;91.79;98485.44;1820126;78;25589;-66
2024/04/02 09:47:34;;;;;;;20.10;14.38;;;;;;;10.88;91.71;98487.59;1820305;78;25585;-67
2024/04/02 09:50:03;;;;;;;52.93;37.13;;;;;;;10.89;92.18;98487.79;1820240;78;25563;-64
2024/04/02 09:52:31;;;;;;;31.65;26.10;;;;;;;10.90;92.46;98492.08;1820382;78;25519;-64
2024/04/02 09:55:01;;;;;;;5.72;4.42;;;;;;;10.90;92.47;98496.13;1820042;78;28033;-69
2024/04/02 09:57:30;;;;;;;7.15;5.20;;;;;;;10.89;92.67;98501.31;1820012;78;25416;-72
2024/04/02 09:59:59;;;;;;;4.10;3.70;;;;;;;10.84;92.87;98502.40;1820095;78;25530;-68
2024/04/02 10:02:29;;;;;;;6.05;3.90;;;;;;;10.84;93.28;98510.52;1819935;78;25588;-67
2024/04/02 10:04:57;;;;;;;5.15;4.60;;;;;;;10.81;93.28;98522.58;1820017;78;25190;-66
2024/04/02 10:07:30;;;;;;;6.50;4.95;;;;;;;10.78;94.02;98528.72;1819974;78;29643;-66
2024/04/02 10:10:00;;;;;;;7.65;5.55;;;;;;;10.78;94.27;98537.61;1819913;78;25361;-63
2024/04/02 10:12:36;;;;;;;7.75;5.72;;;;;;;10.75;94.13;98536.18;1820072;78;25541;-64
2024/04/02 10:15:12;;;;;;;7.95;5.15;;;;;;;10.73;94.53;98531.13;1820014;78;25642;-63
2024/04/02 10:17:41;;;;;;;6.15;5.53;;;;;;;10.67;94.24;98535.22;1820079;78;25494;-64
2024/04/02 10:20:30;;;;;;;8.30;5.47;;;;;;;10.64;94.64;98534.02;1820176;78;27808;-66
2024/04/02 10:23:03;;;;;;;8.38;5.92;;;;;;;10.64;95.30;98536.73;1820053;78;25407;-64
2024/04/02 10:25:37;;;;;;;7.87;5.90;;;;;;;10.67;95.64;98543.91;1819979;78;25457;-65
2024/04/02 10:28:09;;;;;;;6.78;6.08;;;;;;;10.68;96.28;98544.91;1819959;78;25636;-65
2024/04/02 10:30:35;;;;;;;6.37;5.75;;;;;;;10.69;96.58;98542.98;1820055;78;25555;-63
2024/04/02 10:33:10;;;;;;;8.45;5.97;;;;;;;10.67;96.20;98543.34;1819993;78;27820;-64
2024/04/02 10:35:41;;;;;;;6.53;5.78;;;;;;;10.67;96.10;98554.16;1815800;78;25601;-63
2024/04/02 10:38:12;;;;;;;7.47;5.83;;;;;;;10.61;95.92;98550.94;1820029;78;25471;-63
2024/04/02 10:40:41;;;;;;;8.68;7.60;;;;;;;10.56;95.42;98557.97;1819966;78;25633;-66
2024/04/02 10:43:10;;;;;;;6.65;5.95;;;;;;;10.52;95.82;98554.41;1820150;78;25539;-65
2024/04/02 10:45:40;;;;;;;8.55;6.15;;;;;;;10.45;95.53;98556.38;1820037;78;27451;-65
2024/04/02 10:48:11;;;;;;;8.15;5.92;;;;;;;10.42;95.90;98553.56;1819913;78;25977;-64
2024/04/02 10:50:41;;;;;;;7.53;6.72;;;;;;;10.37;95.99;98556.53;1820058;78;25433;-64
2024/04/02 10:53:07;;;;;;;8.45;6.67;;;;;;;10.38;96.34;98568.92;1820098;78;31887;-63
2024/04/02 10:55:34;;;;;;;7.58;6.60;;;;;;;10.39;96.63;98563.75;1819977;78;25540;-65
2024/04/02 10:58:07;;;;;;;;;;;;;;;10.37;96.81;98570.85;1822689;78;27477;-65
2024/04/02 11:00:37;;;;;;;8.23;7.30;;;;;;;10.36;96.98;98573.32;1819946;78;25567;-66
2024/04/02 11:03:11;;;;;;;28.05;21.33;;;;;;;10.34;97.08;98574.25;1820018;78;25537;-66
2024/04/02 11:05:43;;;;;;;27.65;20.57;;;;;;;10.32;97.28;98580.57;1819993;78;25540;-67
2024/04/02 11:08:15;;;;;;;13.38;10.40;;;;;;;10.36;97.84;98582.00;1820025;78;25440;-68
2024/04/02 11:10:52;;;;;;;13.98;8.58;;;;;;;10.40;98.11;98589.63;1821643;78;28134;-65
2024/04/02 11:13:30;;;;;;;11.65;9.23;;;;;;;10.40;98.04;98585.02;1819947;78;25668;-66
2024/04/02 11:15:59;;;;;;;11.18;9.58;;;;;;;10.43;98.03;98591.05;1819959;78;25436;-65
2024/04/02 11:18:29;;;;;;;11.93;9.68;;;;;;;10.49;98.72;98600.25;1820041;78;25516;-65
2024/04/02 11:21:00;;;;;;;12.45;9.18;;;;;;;10.43;98.07;98600.52;1820035;78;25388;-66
2024/04/02 11:26:25;;;;;;;13.60;9.88;;;;;;;10.38;97.87;98608.11;1819845;78;25476;-66
2024/04/02 11:29:12;;;;;;;13.08;10.85;;;;;;;10.33;97.69;98619.95;1819986;78;25380;-66
2024/04/02 11:31:43;;;;;;;11.08;9.93;;;;;;;10.27;97.55;98623.46;1819957;78;25452;-66
2024/04/02 11:34:16;;;;;;;14.73;10.40;;;;;;;10.30;98.11;98628.75;1820028;78;25378;-66
2024/04/02 11:36:48;;;;;;;13.85;10.85;;;;;;;10.32;98.72;98626.52;1819932;78;27366;-65
2024/04/02 11:39:20;;;;;;;14.45;11.97;;;;;;;10.31;98.46;98628.17;1819939;78;25296;-65
2024/04/02 11:41:50;;;;;;;15.30;12.75;;;;;;;10.29;98.28;98627.95;1819994;78;25537;-64